sensor_id;sensor_type;location;lat;lon;timestamp;P1;durP1;ratioP1;P2;durP2;ratioP2
42098;SDS011;27758;55.900;8.516;2023-05-10T00:00:00;7.55;;;2.90;;
42098;SDS011;27758;55.900;8.516;2023-05-10T00:02:26;8.18;;;3.30;;
42098;SDS011;27758;55.900;8.516;2023-05-10T00:04:51;6.15;;;3.33;;
42098;SDS011;27758;55.900;8.516;2023-05-10T00:07:17;7.82;;;2.78;;
42098;SDS011;27758;55.900;8.516;2023-05-10T00:09:43;8.50;;;3.35;;
42098;SDS011;27758;55.900;8.516;2023-05-10T00:12:09;8.30;;;2.83;;
42098;SDS011;27758;55.900;8.516;2023-05-10T00:14:35;9.73;;;3.40;;
42098;SDS011;27758;55.900;8.516;2023-05-10T00:17:02;10.00;;;3.00;;
42098;SDS011;27758;55.900;8.516;2023-05-10T00:19:27;9.32;;;3.03;;
42098;SDS011;27758;55.900;8.516;2023-05-10T00:21:53;11.65;;;2.97;;
42098;SDS011;27758;55.900;8.516;2023-05-10T00:24:25;6.20;;;3.00;;
42098;SDS011;27758;55.900;8.516;2023-05-10T00:26:50;10.70;;;3.53;;
42098;SDS011;27758;55.900;8.516;2023-05-10T00:29:16;4.25;;;3.10;;
42098;SDS011;27758;55.900;8.516;2023-05-10T00:31:42;10.23;;;3.45;;
42098;SDS011;27758;55.900;8.516;2023-05-10T00:34:10;6.90;;;3.30;;
42098;SDS011;27758;55.900;8.516;2023-05-10T00:36:37;9.32;;;3.20;;
42098;SDS011;27758;55.900;8.516;2023-05-10T00:39:03;6.22;;;3.20;;
42098;SDS011;27758;55.900;8.516;2023-05-10T00:41:29;8.50;;;3.13;;
42098;SDS011;27758;55.900;8.516;2023-05-10T00:43:57;7.32;;;3.30;;
42098;SDS011;27758;55.900;8.516;2023-05-10T00:46:23;9.38;;;2.90;;
42098;SDS011;27758;55.900;8.516;2023-05-10T00:48:50;5.72;;;2.92;;
42098;SDS011;27758;55.900;8.516;2023-05-10T00:51:17;6.85;;;3.42;;
42098;SDS011;27758;55.900;8.516;2023-05-10T00:53:44;11.43;;;3.85;;
42098;SDS011;27758;55.900;8.516;2023-05-10T00:56:11;9.70;;;3.38;;
42098;SDS011;27758;55.900;8.516;2023-05-10T00:58:37;5.10;;;2.92;;
42098;SDS011;27758;55.900;8.516;2023-05-10T01:01:04;7.28;;;2.78;;
42098;SDS011;27758;55.900;8.516;2023-05-10T01:03:36;8.18;;;3.28;;
42098;SDS011;27758;55.900;8.516;2023-05-10T01:06:02;7.32;;;3.60;;
42098;SDS011;27758;55.900;8.516;2023-05-10T01:08:28;6.35;;;3.10;;
42098;SDS011;27758;55.900;8.516;2023-05-10T01:10:54;5.93;;;3.05;;
42098;SDS011;27758;55.900;8.516;2023-05-10T01:13:30;6.32;;;3.17;;
42098;SDS011;27758;55.900;8.516;2023-05-10T01:15:57;7.43;;;2.97;;
42098;SDS011;27758;55.900;8.516;2023-05-10T01:18:23;4.85;;;2.58;;
42098;SDS011;27758;55.900;8.516;2023-05-10T01:32:11;8.15;;;3.47;;
42098;SDS011;27758;55.900;8.516;2023-05-10T01:37:23;6.47;;;3.20;;
42098;SDS011;27758;55.900;8.516;2023-05-10T01:40:17;9.25;;;3.65;;
42098;SDS011;27758;55.900;8.516;2023-05-10T01:42:51;7.63;;;3.10;;
42098;SDS011;27758;55.900;8.516;2023-05-10T01:45:41;5.18;;;2.97;;
42098;SDS011;27758;55.900;8.516;2023-05-10T01:48:47;6.63;;;3.10;;
42098;SDS011;27758;55.900;8.516;2023-05-10T01:51:17;5.85;;;2.55;;
42098;SDS011;27758;55.900;8.516;2023-05-10T01:53:47;6.03;;;3.20;;
42098;SDS011;27758;55.900;8.516;2023-05-10T01:56:14;4.68;;;2.90;;
42098;SDS011;27758;55.900;8.516;2023-05-10T01:58:43;7.85;;;3.55;;
42098;SDS011;27758;55.900;8.516;2023-05-10T02:01:11;6.97;;;3.33;;
42098;SDS011;27758;55.900;8.516;2023-05-10T02:03:38;5.38;;;3.20;;
42098;SDS011;27758;55.900;8.516;2023-05-10T02:06:06;8.48;;;3.75;;
42098;SDS011;27758;55.900;8.516;2023-05-10T02:08:34;10.20;;;3.20;;
42098;SDS011;27758;55.900;8.516;2023-05-10T02:11:01;9.20;;;3.35;;
42098;SDS011;27758;55.900;8.516;2023-05-10T02:13:28;7.72;;;3.40;;
42098;SDS011;27758;55.900;8.516;2023-05-10T02:15:56;7.93;;;3.25;;
42098;SDS011;27758;55.900;8.516;2023-05-10T02:18:25;7.20;;;3.42;;
42098;SDS011;27758;55.900;8.516;2023-05-10T02:20:52;8.82;;;3.58;;
42098;SDS011;27758;55.900;8.516;2023-05-10T02:23:20;9.20;;;3.55;;
42098;SDS011;27758;55.900;8.516;2023-05-10T02:25:47;8.25;;;3.22;;
42098;SDS011;27758;55.900;8.516;2023-05-10T02:28:17;7.88;;;3.70;;
42098;SDS011;27758;55.900;8.516;2023-05-10T02:30:44;6.47;;;3.35;;
42098;SDS011;27758;55.900;8.516;2023-05-10T02:33:12;11.32;;;3.63;;
42098;SDS011;27758;55.900;8.516;2023-05-10T02:35:38;8.18;;;3.53;;
42098;SDS011;27758;55.900;8.516;2023-05-10T02:38:05;14.70;;;3.67;;
42098;SDS011;27758;55.900;8.516;2023-05-10T02:40:32;8.35;;;3.33;;
42098;SDS011;27758;55.900;8.516;2023-05-10T02:43:01;10.35;;;4.05;;
42098;SDS011;27758;55.900;8.516;2023-05-10T02:45:30;5.82;;;3.60;;
42098;SDS011;27758;55.900;8.516;2023-05-10T02:47:58;8.95;;;3.35;;
42098;SDS011;27758;55.900;8.516;2023-05-10T02:50:25;5.82;;;4.05;;
42098;SDS011;27758;55.900;8.516;2023-05-10T02:53:02;5.63;;;3.20;;
42098;SDS011;27758;55.900;8.516;2023-05-10T02:55:35;10.55;;;3.70;;
42098;SDS011;27758;55.900;8.516;2023-05-10T02:58:03;6.85;;;3.40;;
42098;SDS011;27758;55.900;8.516;2023-05-10T03:00:29;8.93;;;3.22;;
42098;SDS011;27758;55.900;8.516;2023-05-10T03:02:56;10.70;;;3.47;;
42098;SDS011;27758;55.900;8.516;2023-05-10T03:05:22;9.25;;;3.63;;
42098;SDS011;27758;55.900;8.516;2023-05-10T03:07:51;8.97;;;3.90;;
42098;SDS011;27758;55.900;8.516;2023-05-10T03:10:17;8.27;;;3.65;;
42098;SDS011;27758;55.900;8.516;2023-05-10T03:20:16;7.70;;;3.97;;
42098;SDS011;27758;55.900;8.516;2023-05-10T03:22:55;7.18;;;4.00;;
42098;SDS011;27758;55.900;8.516;2023-05-10T03:25:37;7.45;;;3.67;;
42098;SDS011;27758;55.900;8.516;2023-05-10T03:28:03;8.85;;;3.88;;
42098;SDS011;27758;55.900;8.516;2023-05-10T03:30:30;5.53;;;3.58;;
42098;SDS011;27758;55.900;8.516;2023-05-10T03:32:56;7.05;;;3.45;;
42098;SDS011;27758;55.900;8.516;2023-05-10T03:35:22;8.40;;;4.32;;
42098;SDS011;27758;55.900;8.516;2023-05-10T03:37:49;7.47;;;4.18;;
42098;SDS011;27758;55.900;8.516;2023-05-10T03:40:14;7.63;;;3.85;;
42098;SDS011;27758;55.900;8.516;2023-05-10T03:42:41;8.02;;;3.78;;
42098;SDS011;27758;55.900;8.516;2023-05-10T03:45:07;9.68;;;4.15;;
42098;SDS011;27758;55.900;8.516;2023-05-10T03:47:36;7.80;;;4.05;;
42098;SDS011;27758;55.900;8.516;2023-05-10T03:50:01;8.75;;;4.00;;
42098;SDS011;27758;55.900;8.516;2023-05-10T03:52:30;9.93;;;4.32;;
42098;SDS011;27758;55.900;8.516;2023-05-10T03:54:56;8.55;;;3.70;;
42098;SDS011;27758;55.900;8.516;2023-05-10T03:57:26;10.73;;;4.55;;
42098;SDS011;27758;55.900;8.516;2023-05-10T03:59:52;8.13;;;4.72;;
42098;SDS011;27758;55.900;8.516;2023-05-10T04:02:17;6.65;;;3.92;;
42098;SDS011;27758;55.900;8.516;2023-05-10T04:04:43;6.90;;;3.60;;
42098;SDS011;27758;55.900;8.516;2023-05-10T04:07:09;8.82;;;3.90;;
42098;SDS011;27758;55.900;8.516;2023-05-10T04:09:35;9.23;;;4.32;;
42098;SDS011;27758;55.900;8.516;2023-05-10T04:12:04;11.88;;;3.88;;
42098;SDS011;27758;55.900;8.516;2023-05-10T04:14:30;9.85;;;4.72;;
42098;SDS011;27758;55.900;8.516;2023-05-10T04:16:56;12.23;;;4.55;;
42098;SDS011;27758;55.900;8.516;2023-05-10T04:19:21;8.38;;;4.40;;
42098;SDS011;27758;55.900;8.516;2023-05-10T04:21:47;9.70;;;4.00;;
42098;SDS011;27758;55.900;8.516;2023-05-10T04:24:13;8.63;;;4.07;;
42098;SDS011;27758;55.900;8.516;2023-05-10T04:26:39;6.95;;;3.80;;
42098;SDS011;27758;55.900;8.516;2023-05-10T04:29:05;8.38;;;4.07;;
42098;SDS011;27758;55.900;8.516;2023-05-10T04:31:30;7.75;;;3.72;;
42098;SDS011;27758;55.900;8.516;2023-05-10T04:33:56;8.10;;;4.63;;
42098;SDS011;27758;55.900;8.516;2023-05-10T04:36:22;8.68;;;3.78;;
42098;SDS011;27758;55.900;8.516;2023-05-10T04:38:47;8.43;;;4.15;;
42098;SDS011;27758;55.900;8.516;2023-05-10T04:41:13;11.88;;;4.35;;
42098;SDS011;27758;55.900;8.516;2023-05-10T04:43:39;7.07;;;3.83;;
42098;SDS011;27758;55.900;8.516;2023-05-10T04:46:05;8.05;;;3.70;;
42098;SDS011;27758;55.900;8.516;2023-05-10T04:48:32;12.30;;;4.38;;
42098;SDS011;27758;55.900;8.516;2023-05-10T04:50:58;11.18;;;4.50;;
42098;SDS011;27758;55.900;8.516;2023-05-10T04:53:26;8.63;;;3.67;;
42098;SDS011;27758;55.900;8.516;2023-05-10T04:55:52;11.30;;;3.78;;
42098;SDS011;27758;55.900;8.516;2023-05-10T04:58:21;13.80;;;4.35;;
42098;SDS011;27758;55.900;8.516;2023-05-10T05:00:46;8.60;;;3.65;;
42098;SDS011;27758;55.900;8.516;2023-05-10T05:03:15;8.75;;;3.72;;
42098;SDS011;27758;55.900;8.516;2023-05-10T05:05:40;12.55;;;4.57;;
42098;SDS011;27758;55.900;8.516;2023-05-10T05:08:06;10.10;;;4.45;;
42098;SDS011;27758;55.900;8.516;2023-05-10T05:10:33;8.70;;;4.28;;
42098;SDS011;27758;55.900;8.516;2023-05-10T05:12:59;9.13;;;4.28;;
42098;SDS011;27758;55.900;8.516;2023-05-10T05:15:25;10.38;;;4.47;;
42098;SDS011;27758;55.900;8.516;2023-05-10T05:17:51;6.03;;;4.47;;
42098;SDS011;27758;55.900;8.516;2023-05-10T05:20:20;11.95;;;4.75;;
42098;SDS011;27758;55.900;8.516;2023-05-10T05:22:46;8.23;;;3.88;;
42098;SDS011;27758;55.900;8.516;2023-05-10T05:25:11;11.30;;;4.50;;
42098;SDS011;27758;55.900;8.516;2023-05-10T05:27:37;6.75;;;3.88;;
42098;SDS011;27758;55.900;8.516;2023-05-10T05:30:06;10.90;;;4.03;;
42098;SDS011;27758;55.900;8.516;2023-05-10T05:32:32;8.57;;;4.35;;
42098;SDS011;27758;55.900;8.516;2023-05-10T05:34:58;9.52;;;4.15;;
42098;SDS011;27758;55.900;8.516;2023-05-10T05:37:27;8.63;;;4.18;;
42098;SDS011;27758;55.900;8.516;2023-05-10T05:39:53;10.30;;;4.20;;
42098;SDS011;27758;55.900;8.516;2023-05-10T05:42:19;9.43;;;4.72;;
42098;SDS011;27758;55.900;8.516;2023-05-10T05:44:45;11.30;;;4.13;;
42098;SDS011;27758;55.900;8.516;2023-05-10T05:47:11;7.22;;;4.28;;
42098;SDS011;27758;55.900;8.516;2023-05-10T05:49:37;10.73;;;4.20;;
42098;SDS011;27758;55.900;8.516;2023-05-10T05:52:03;9.00;;;4.45;;
42098;SDS011;27758;55.900;8.516;2023-05-10T05:54:29;11.15;;;4.43;;
42098;SDS011;27758;55.900;8.516;2023-05-10T05:56:56;12.27;;;4.60;;
42098;SDS011;27758;55.900;8.516;2023-05-10T05:59:22;11.07;;;4.25;;
42098;SDS011;27758;55.900;8.516;2023-05-10T06:01:49;7.50;;;3.78;;
42098;SDS011;27758;55.900;8.516;2023-05-10T06:04:15;9.82;;;5.18;;
42098;SDS011;27758;55.900;8.516;2023-05-10T06:06:41;6.55;;;3.85;;
42098;SDS011;27758;55.900;8.516;2023-05-10T06:09:07;7.88;;;4.72;;
42098;SDS011;27758;55.900;8.516;2023-05-10T06:11:33;9.20;;;4.50;;
42098;SDS011;27758;55.900;8.516;2023-05-10T06:13:59;7.97;;;4.47;;
42098;SDS011;27758;55.900;8.516;2023-05-10T06:16:26;8.48;;;4.30;;
42098;SDS011;27758;55.900;8.516;2023-05-10T06:18:52;9.77;;;4.93;;
42098;SDS011;27758;55.900;8.516;2023-05-10T06:21:18;8.20;;;4.18;;
42098;SDS011;27758;55.900;8.516;2023-05-10T06:23:43;8.30;;;4.13;;
42098;SDS011;27758;55.900;8.516;2023-05-10T06:26:10;8.57;;;4.68;;
42098;SDS011;27758;55.900;8.516;2023-05-10T06:28:36;9.10;;;4.65;;
42098;SDS011;27758;55.900;8.516;2023-05-10T06:31:04;9.55;;;4.20;;
42098;SDS011;27758;55.900;8.516;2023-05-10T06:33:30;10.13;;;5.15;;
42098;SDS011;27758;55.900;8.516;2023-05-10T06:35:56;9.88;;;4.35;;
42098;SDS011;27758;55.900;8.516;2023-05-10T06:38:22;14.65;;;5.78;;
42098;SDS011;27758;55.900;8.516;2023-05-10T06:40:54;8.77;;;4.70;;
42098;SDS011;27758;55.900;8.516;2023-05-10T06:43:20;26.80;;;5.35;;
42098;SDS011;27758;55.900;8.516;2023-05-10T06:45:47;7.22;;;4.50;;
42098;SDS011;27758;55.900;8.516;2023-05-10T06:48:13;9.27;;;4.40;;
42098;SDS011;27758;55.900;8.516;2023-05-10T06:50:39;8.15;;;4.88;;
42098;SDS011;27758;55.900;8.516;2023-05-10T06:53:04;9.43;;;4.85;;
42098;SDS011;27758;55.900;8.516;2023-05-10T06:55:30;10.75;;;4.68;;
42098;SDS011;27758;55.900;8.516;2023-05-10T06:57:57;7.15;;;4.43;;
42098;SDS011;27758;55.900;8.516;2023-05-10T07:00:23;7.75;;;4.18;;
42098;SDS011;27758;55.900;8.516;2023-05-10T07:03:04;9.25;;;4.78;;
42098;SDS011;27758;55.900;8.516;2023-05-10T07:05:29;10.73;;;4.50;;
42098;SDS011;27758;55.900;8.516;2023-05-10T07:07:55;9.10;;;4.45;;
42098;SDS011;27758;55.900;8.516;2023-05-10T07:10:21;7.65;;;4.38;;
42098;SDS011;27758;55.900;8.516;2023-05-10T07:12:46;13.20;;;4.68;;
42098;SDS011;27758;55.900;8.516;2023-05-10T07:15:12;11.48;;;4.90;;
42098;SDS011;27758;55.900;8.516;2023-05-10T07:17:38;9.57;;;5.28;;
42098;SDS011;27758;55.900;8.516;2023-05-10T07:20:03;8.80;;;4.72;;
42098;SDS011;27758;55.900;8.516;2023-05-10T07:22:30;10.68;;;5.18;;
42098;SDS011;27758;55.900;8.516;2023-05-10T07:24:55;8.20;;;4.28;;
42098;SDS011;27758;55.900;8.516;2023-05-10T07:27:21;12.15;;;4.50;;
42098;SDS011;27758;55.900;8.516;2023-05-10T07:29:47;9.38;;;4.30;;
42098;SDS011;27758;55.900;8.516;2023-05-10T07:32:13;6.75;;;4.18;;
42098;SDS011;27758;55.900;8.516;2023-05-10T07:34:39;6.75;;;4.68;;
42098;SDS011;27758;55.900;8.516;2023-05-10T07:37:04;6.50;;;4.38;;
42098;SDS011;27758;55.900;8.516;2023-05-10T07:39:31;10.15;;;4.68;;
42098;SDS011;27758;55.900;8.516;2023-05-10T07:41:56;9.00;;;4.88;;
42098;SDS011;27758;55.900;8.516;2023-05-10T07:44:22;12.75;;;5.28;;
42098;SDS011;27758;55.900;8.516;2023-05-10T07:46:48;9.05;;;4.88;;
42098;SDS011;27758;55.900;8.516;2023-05-10T07:49:14;8.95;;;4.57;;
42098;SDS011;27758;55.900;8.516;2023-05-10T07:51:40;10.77;;;4.80;;
42098;SDS011;27758;55.900;8.516;2023-05-10T07:54:09;7.85;;;4.93;;
42098;SDS011;27758;55.900;8.516;2023-05-10T07:56:35;10.52;;;5.15;;
42098;SDS011;27758;55.900;8.516;2023-05-10T07:59:01;9.55;;;5.38;;
42098;SDS011;27758;55.900;8.516;2023-05-10T08:01:32;7.15;;;4.40;;
42098;SDS011;27758;55.900;8.516;2023-05-10T08:03:58;9.55;;;4.70;;
42098;SDS011;27758;55.900;8.516;2023-05-10T08:06:25;9.45;;;4.95;;
42098;SDS011;27758;55.900;8.516;2023-05-10T08:08:54;10.02;;;4.88;;
42098;SDS011;27758;55.900;8.516;2023-05-10T08:11:21;10.02;;;5.25;;
42098;SDS011;27758;55.900;8.516;2023-05-10T08:13:48;11.93;;;5.20;;
42098;SDS011;27758;55.900;8.516;2023-05-10T08:16:15;11.15;;;4.57;;
42098;SDS011;27758;55.900;8.516;2023-05-10T08:18:44;10.40;;;5.70;;
42098;SDS011;27758;55.900;8.516;2023-05-10T08:21:11;9.30;;;5.10;;
42098;SDS011;27758;55.900;8.516;2023-05-10T08:23:37;11.77;;;5.65;;
42098;SDS011;27758;55.900;8.516;2023-05-10T08:26:04;8.00;;;4.72;;
42098;SDS011;27758;55.900;8.516;2023-05-10T08:28:30;6.50;;;4.45;;
42098;SDS011;27758;55.900;8.516;2023-05-10T08:30:58;10.05;;;5.15;;
42098;SDS011;27758;55.900;8.516;2023-05-10T08:33:24;10.70;;;4.75;;
42098;SDS011;27758;55.900;8.516;2023-05-10T08:35:50;10.05;;;5.22;;
42098;SDS011;27758;55.900;8.516;2023-05-10T08:38:17;7.50;;;5.18;;
42098;SDS011;27758;55.900;8.516;2023-05-10T08:40:43;10.00;;;5.60;;
42098;SDS011;27758;55.900;8.516;2023-05-10T08:43:11;9.38;;;5.15;;
42098;SDS011;27758;55.900;8.516;2023-05-10T08:45:40;9.25;;;5.63;;
42098;SDS011;27758;55.900;8.516;2023-05-10T08:48:08;8.68;;;4.80;;
42098;SDS011;27758;55.900;8.516;2023-05-10T08:50:39;9.23;;;5.20;;
42098;SDS011;27758;55.900;8.516;2023-05-10T08:53:06;7.72;;;4.72;;
42098;SDS011;27758;55.900;8.516;2023-05-10T08:55:38;12.10;;;6.60;;
42098;SDS011;27758;55.900;8.516;2023-05-10T08:58:05;31.55;;;15.70;;
42098;SDS011;27758;55.900;8.516;2023-05-10T09:00:32;79.72;;;34.47;;
42098;SDS011;27758;55.900;8.516;2023-05-10T09:02:59;14.30;;;7.68;;
42098;SDS011;27758;55.900;8.516;2023-05-10T09:05:26;10.63;;;5.75;;
42098;SDS011;27758;55.900;8.516;2023-05-10T09:07:52;108.30;;;48.28;;
42098;SDS011;27758;55.900;8.516;2023-05-10T09:10:18;13.63;;;8.18;;
42098;SDS011;27758;55.900;8.516;2023-05-10T09:12:45;9.00;;;5.53;;
42098;SDS011;27758;55.900;8.516;2023-05-10T09:15:12;12.18;;;5.78;;
42098;SDS011;27758;55.900;8.516;2023-05-10T09:17:42;11.02;;;5.88;;
42098;SDS011;27758;55.900;8.516;2023-05-10T09:20:10;8.50;;;5.50;;
42098;SDS011;27758;55.900;8.516;2023-05-10T09:22:36;11.50;;;6.63;;
42098;SDS011;27758;55.900;8.516;2023-05-10T09:27:35;14.45;;;7.78;;
42098;SDS011;27758;55.900;8.516;2023-05-10T09:30:01;31.05;;;19.90;;
42098;SDS011;27758;55.900;8.516;2023-05-10T09:35:10;11.02;;;5.97;;
42098;SDS011;27758;55.900;8.516;2023-05-10T09:37:42;11.80;;;8.20;;
42098;SDS011;27758;55.900;8.516;2023-05-10T09:40:14;12.60;;;6.72;;
42098;SDS011;27758;55.900;8.516;2023-05-10T09:43:08;13.07;;;6.53;;
42098;SDS011;27758;55.900;8.516;2023-05-10T09:45:35;10.07;;;5.80;;
42098;SDS011;27758;55.900;8.516;2023-05-10T09:48:02;8.88;;;6.15;;
42098;SDS011;27758;55.900;8.516;2023-05-10T09:50:28;10.25;;;6.13;;
42098;SDS011;27758;55.900;8.516;2023-05-10T09:52:56;11.70;;;6.05;;
42098;SDS011;27758;55.900;8.516;2023-05-10T09:55:25;8.82;;;5.63;;
42098;SDS011;27758;55.900;8.516;2023-05-10T09:57:59;10.13;;;5.80;;
42098;SDS011;27758;55.900;8.516;2023-05-10T10:00:33;9.75;;;5.97;;
42098;SDS011;27758;55.900;8.516;2023-05-10T10:03:11;10.48;;;6.07;;
42098;SDS011;27758;55.900;8.516;2023-05-10T10:05:42;10.00;;;6.05;;
42098;SDS011;27758;55.900;8.516;2023-05-10T10:08:09;8.50;;;5.43;;
42098;SDS011;27758;55.900;8.516;2023-05-10T10:10:37;12.93;;;6.15;;
42098;SDS011;27758;55.900;8.516;2023-05-10T10:13:05;10.52;;;6.53;;
42098;SDS011;27758;55.900;8.516;2023-05-10T10:15:32;10.98;;;5.95;;
42098;SDS011;27758;55.900;8.516;2023-05-10T10:17:58;11.75;;;5.32;;
42098;SDS011;27758;55.900;8.516;2023-05-10T10:20:25;8.23;;;6.13;;
42098;SDS011;27758;55.900;8.516;2023-05-10T10:22:52;15.20;;;6.45;;
42098;SDS011;27758;55.900;8.516;2023-05-10T10:25:18;8.00;;;5.68;;
42098;SDS011;27758;55.900;8.516;2023-05-10T10:36:10;9.60;;;5.80;;
42098;SDS011;27758;55.900;8.516;2023-05-10T10:41:32;9.75;;;5.65;;
42098;SDS011;27758;55.900;8.516;2023-05-10T10:49:25;10.93;;;6.15;;
42098;SDS011;27758;55.900;8.516;2023-05-10T10:52:18;13.18;;;6.53;;
42098;SDS011;27758;55.900;8.516;2023-05-10T10:55:05;8.35;;;5.38;;
42098;SDS011;27758;55.900;8.516;2023-05-10T11:00:18;10.70;;;6.70;;
42098;SDS011;27758;55.900;8.516;2023-05-10T11:02:46;6.60;;;5.38;;
42098;SDS011;27758;55.900;8.516;2023-05-10T11:07:53;10.10;;;5.72;;
42098;SDS011;27758;55.900;8.516;2023-05-10T11:10:20;7.43;;;4.93;;
42098;SDS011;27758;55.900;8.516;2023-05-10T11:12:51;9.35;;;5.47;;
42098;SDS011;27758;55.900;8.516;2023-05-10T11:15:33;10.60;;;5.65;;
42098;SDS011;27758;55.900;8.516;2023-05-10T11:18:23;8.27;;;5.70;;
42098;SDS011;27758;55.900;8.516;2023-05-10T11:21:00;9.93;;;5.10;;
42098;SDS011;27758;55.900;8.516;2023-05-10T11:23:48;10.43;;;5.68;;
42098;SDS011;27758;55.900;8.516;2023-05-10T11:26:24;9.40;;;5.15;;
42098;SDS011;27758;55.900;8.516;2023-05-10T11:28:52;8.13;;;5.20;;
42098;SDS011;27758;55.900;8.516;2023-05-10T11:31:20;8.07;;;5.63;;
42098;SDS011;27758;55.900;8.516;2023-05-10T11:33:47;13.93;;;5.20;;
42098;SDS011;27758;55.900;8.516;2023-05-10T11:36:19;12.43;;;5.10;;
42098;SDS011;27758;55.900;8.516;2023-05-10T11:38:46;9.23;;;5.95;;
42098;SDS011;27758;55.900;8.516;2023-05-10T11:41:13;9.38;;;5.53;;
42098;SDS011;27758;55.900;8.516;2023-05-10T11:43:40;11.45;;;5.88;;
42098;SDS011;27758;55.900;8.516;2023-05-10T11:46:07;7.97;;;5.35;;
42098;SDS011;27758;55.900;8.516;2023-05-10T11:48:35;9.70;;;5.53;;
42098;SDS011;27758;55.900;8.516;2023-05-10T11:51:03;11.35;;;5.82;;
42098;SDS011;27758;55.900;8.516;2023-05-10T11:53:30;11.63;;;5.50;;
42098;SDS011;27758;55.900;8.516;2023-05-10T11:56:03;8.95;;;6.35;;
42098;SDS011;27758;55.900;8.516;2023-05-10T11:58:34;11.48;;;5.47;;
42098;SDS011;27758;55.900;8.516;2023-05-10T12:01:01;8.63;;;6.13;;
42098;SDS011;27758;55.900;8.516;2023-05-10T12:03:27;13.10;;;6.25;;
42098;SDS011;27758;55.900;8.516;2023-05-10T12:05:57;8.90;;;6.25;;
42098;SDS011;27758;55.900;8.516;2023-05-10T12:08:25;11.55;;;5.90;;
42098;SDS011;27758;55.900;8.516;2023-05-10T12:10:52;13.18;;;6.55;;
42098;SDS011;27758;55.900;8.516;2023-05-10T12:13:19;10.73;;;6.80;;
42098;SDS011;27758;55.900;8.516;2023-05-10T12:15:46;11.23;;;6.82;;
42098;SDS011;27758;55.900;8.516;2023-05-10T12:18:12;12.63;;;7.40;;
42098;SDS011;27758;55.900;8.516;2023-05-10T12:20:39;13.35;;;7.43;;
42098;SDS011;27758;55.900;8.516;2023-05-10T12:23:05;13.00;;;8.15;;
42098;SDS011;27758;55.900;8.516;2023-05-10T12:25:33;12.05;;;7.63;;
42098;SDS011;27758;55.900;8.516;2023-05-10T12:28:02;10.65;;;7.63;;
42098;SDS011;27758;55.900;8.516;2023-05-10T12:30:32;11.27;;;8.13;;
42098;SDS011;27758;55.900;8.516;2023-05-10T12:33:02;11.02;;;7.82;;
42098;SDS011;27758;55.900;8.516;2023-05-10T12:35:46;13.85;;;8.27;;
42098;SDS011;27758;55.900;8.516;2023-05-10T12:38:29;11.98;;;8.75;;
42098;SDS011;27758;55.900;8.516;2023-05-10T12:41:04;13.23;;;8.43;;
42098;SDS011;27758;55.900;8.516;2023-05-10T12:43:31;16.98;;;8.75;;
42098;SDS011;27758;55.900;8.516;2023-05-10T12:45:58;13.02;;;8.02;;
42098;SDS011;27758;55.900;8.516;2023-05-10T12:48:29;11.68;;;8.50;;
42098;SDS011;27758;55.900;8.516;2023-05-10T12:50:59;9.93;;;8.15;;
42098;SDS011;27758;55.900;8.516;2023-05-10T12:53:26;11.98;;;8.27;;
42098;SDS011;27758;55.900;8.516;2023-05-10T12:55:52;12.73;;;8.63;;
42098;SDS011;27758;55.900;8.516;2023-05-10T12:58:18;12.27;;;8.85;;
42098;SDS011;27758;55.900;8.516;2023-05-10T13:00:45;11.05;;;8.13;;
42098;SDS011;27758;55.900;8.516;2023-05-10T13:03:11;13.82;;;8.82;;
42098;SDS011;27758;55.900;8.516;2023-05-10T13:05:36;12.05;;;8.60;;
42098;SDS011;27758;55.900;8.516;2023-05-10T13:08:02;12.23;;;8.38;;
42098;SDS011;27758;55.900;8.516;2023-05-10T13:10:29;15.70;;;8.95;;
42098;SDS011;27758;55.900;8.516;2023-05-10T13:15:24;17.13;;;8.45;;
42098;SDS011;27758;55.900;8.516;2023-05-10T13:17:50;12.88;;;9.15;;
42098;SDS011;27758;55.900;8.516;2023-05-10T13:20:16;12.27;;;8.20;;
42098;SDS011;27758;55.900;8.516;2023-05-10T13:22:42;14.20;;;9.50;;
42098;SDS011;27758;55.900;8.516;2023-05-10T13:25:09;12.77;;;8.65;;
42098;SDS011;27758;55.900;8.516;2023-05-10T13:27:35;10.68;;;8.40;;
42098;SDS011;27758;55.900;8.516;2023-05-10T13:30:02;13.55;;;9.55;;
42098;SDS011;27758;55.900;8.516;2023-05-10T13:32:29;16.45;;;9.30;;
42098;SDS011;27758;55.900;8.516;2023-05-10T13:34:55;14.25;;;9.30;;
42098;SDS011;27758;55.900;8.516;2023-05-10T13:37:21;11.75;;;8.82;;
42098;SDS011;27758;55.900;8.516;2023-05-10T13:39:47;12.98;;;8.65;;
42098;SDS011;27758;55.900;8.516;2023-05-10T13:42:13;13.13;;;8.70;;
42098;SDS011;27758;55.900;8.516;2023-05-10T13:44:39;13.80;;;8.85;;
42098;SDS011;27758;55.900;8.516;2023-05-10T13:47:05;15.75;;;9.32;;
42098;SDS011;27758;55.900;8.516;2023-05-10T13:49:31;15.27;;;8.98;;
42098;SDS011;27758;55.900;8.516;2023-05-10T13:51:57;14.20;;;9.93;;
42098;SDS011;27758;55.900;8.516;2023-05-10T13:54:23;13.05;;;9.85;;
42098;SDS011;27758;55.900;8.516;2023-05-10T13:56:49;12.90;;;9.55;;
42098;SDS011;27758;55.900;8.516;2023-05-10T13:59:15;12.48;;;9.43;;
42098;SDS011;27758;55.900;8.516;2023-05-10T14:01:44;15.25;;;10.13;;
42098;SDS011;27758;55.900;8.516;2023-05-10T14:04:09;15.82;;;9.65;;
42098;SDS011;27758;55.900;8.516;2023-05-10T14:06:39;14.02;;;10.27;;
42098;SDS011;27758;55.900;8.516;2023-05-10T14:09:04;16.75;;;10.98;;
42098;SDS011;27758;55.900;8.516;2023-05-10T14:11:30;15.93;;;10.57;;
42098;SDS011;27758;55.900;8.516;2023-05-10T14:13:56;15.82;;;11.65;;
42098;SDS011;27758;55.900;8.516;2023-05-10T14:16:21;15.10;;;10.80;;
42098;SDS011;27758;55.900;8.516;2023-05-10T14:18:47;14.18;;;11.60;;
42098;SDS011;27758;55.900;8.516;2023-05-10T14:21:13;17.65;;;12.18;;
42098;SDS011;27758;55.900;8.516;2023-05-10T14:23:41;14.95;;;11.98;;
42098;SDS011;27758;55.900;8.516;2023-05-10T14:26:07;17.08;;;12.73;;
42098;SDS011;27758;55.900;8.516;2023-05-10T14:28:34;17.75;;;13.00;;
42098;SDS011;27758;55.900;8.516;2023-05-10T14:30:59;15.45;;;12.68;;
42098;SDS011;27758;55.900;8.516;2023-05-10T14:33:25;17.70;;;12.98;;
42098;SDS011;27758;55.900;8.516;2023-05-10T14:35:51;19.42;;;13.43;;
42098;SDS011;27758;55.900;8.516;2023-05-10T14:38:17;22.75;;;14.30;;
42098;SDS011;27758;55.900;8.516;2023-05-10T14:40:43;20.40;;;13.70;;
42098;SDS011;27758;55.900;8.516;2023-05-10T14:43:08;17.02;;;13.60;;
42098;SDS011;27758;55.900;8.516;2023-05-10T14:45:34;17.55;;;14.27;;
42098;SDS011;27758;55.900;8.516;2023-05-10T14:48:00;21.02;;;14.70;;
42098;SDS011;27758;55.900;8.516;2023-05-10T14:50:29;17.00;;;14.50;;
42098;SDS011;27758;55.900;8.516;2023-05-10T14:52:56;17.77;;;15.38;;
42098;SDS011;27758;55.900;8.516;2023-05-10T14:55:22;17.83;;;14.82;;
42098;SDS011;27758;55.900;8.516;2023-05-10T14:57:47;18.45;;;15.10;;
42098;SDS011;27758;55.900;8.516;2023-05-10T15:00:15;22.17;;;15.60;;
42098;SDS011;27758;55.900;8.516;2023-05-10T15:02:41;19.92;;;15.40;;
42098;SDS011;27758;55.900;8.516;2023-05-10T15:05:07;18.67;;;16.45;;
42098;SDS011;27758;55.900;8.516;2023-05-10T15:07:33;20.70;;;16.20;;
42098;SDS011;27758;55.900;8.516;2023-05-10T15:10:01;23.35;;;17.02;;
42098;SDS011;27758;55.900;8.516;2023-05-10T15:12:31;23.40;;;16.85;;
42098;SDS011;27758;55.900;8.516;2023-05-10T15:14:56;19.90;;;17.80;;
42098;SDS011;27758;55.900;8.516;2023-05-10T15:17:22;22.17;;;18.13;;
42098;SDS011;27758;55.900;8.516;2023-05-10T15:19:50;23.45;;;18.50;;
42098;SDS011;27758;55.900;8.516;2023-05-10T15:22:16;23.35;;;19.33;;
42098;SDS011;27758;55.900;8.516;2023-05-10T15:24:42;24.73;;;19.05;;
42098;SDS011;27758;55.900;8.516;2023-05-10T15:27:08;21.35;;;18.02;;
42098;SDS011;27758;55.900;8.516;2023-05-10T15:29:34;22.90;;;19.60;;
42098;SDS011;27758;55.900;8.516;2023-05-10T15:32:01;22.40;;;17.98;;
42098;SDS011;27758;55.900;8.516;2023-05-10T15:34:29;24.63;;;18.35;;